sensor_id;sensor_type;location;lat;lon;timestamp;P1;durP1;ratioP1;P2;durP2;ratioP2
57303;SDS011;43150;50.986;18.208;2023-01-13T00:01:11;17.50;;;7.20;;
57303;SDS011;43150;50.986;18.208;2023-01-13T00:03:36;16.80;;;7.30;;
57303;SDS011;43150;50.986;18.208;2023-01-13T00:06:03;19.80;;;9.10;;
57303;SDS011;43150;50.986;18.208;2023-01-13T00:08:33;19.70;;;8.80;;
57303;SDS011;43150;50.986;18.208;2023-01-13T00:10:59;19.20;;;8.10;;
57303;SDS011;43150;50.986;18.208;2023-01-13T00:13:25;17.40;;;7.60;;
57303;SDS011;43150;50.986;18.208;2023-01-13T00:15:54;14.40;;;6.40;;
57303;SDS011;43150;50.986;18.208;2023-01-13T00:18:20;19.20;;;7.10;;
57303;SDS011;43150;50.986;18.208;2023-01-13T00:20:46;22.30;;;8.50;;
57303;SDS011;43150;50.986;18.208;2023-01-13T00:23:11;18.30;;;7.00;;
57303;SDS011;43150;50.986;18.208;2023-01-13T00:25:37;16.30;;;6.00;;
57303;SDS011;43150;50.986;18.208;2023-01-13T00:28:04;16.20;;;6.40;;
57303;SDS011;43150;50.986;18.208;2023-01-13T00:30:30;9.30;;;4.30;;
57303;SDS011;43150;50.986;18.208;2023-01-13T00:32:56;17.00;;;7.20;;
57303;SDS011;43150;50.986;18.208;2023-01-13T00:35:22;16.80;;;8.30;;
57303;SDS011;43150;50.986;18.208;2023-01-13T00:37:47;20.70;;;7.40;;
57303;SDS011;43150;50.986;18.208;2023-01-13T00:40:13;18.20;;;7.00;;
57303;SDS011;43150;50.986;18.208;2023-01-13T00:42:39;16.50;;;6.40;;
57303;SDS011;43150;50.986;18.208;2023-01-13T00:45:23;17.50;;;6.60;;
57303;SDS011;43150;50.986;18.208;2023-01-13T00:47:48;14.80;;;6.60;;
57303;SDS011;43150;50.986;18.208;2023-01-13T00:50:14;12.70;;;5.00;;
57303;SDS011;43150;50.986;18.208;2023-01-13T00:52:40;12.40;;;4.30;;
57303;SDS011;43150;50.986;18.208;2023-01-13T00:55:10;13.50;;;5.20;;
57303;SDS011;43150;50.986;18.208;2023-01-13T00:57:36;16.50;;;6.90;;
57303;SDS011;43150;50.986;18.208;2023-01-13T01:00:04;12.90;;;5.40;;
57303;SDS011;43150;50.986;18.208;2023-01-13T01:02:30;9.40;;;3.90;;
57303;SDS011;43150;50.986;18.208;2023-01-13T01:04:55;9.70;;;4.30;;
57303;SDS011;43150;50.986;18.208;2023-01-13T01:07:21;8.50;;;3.80;;
57303;SDS011;43150;50.986;18.208;2023-01-13T01:09:46;8.80;;;3.50;;
57303;SDS011;43150;50.986;18.208;2023-01-13T01:12:13;10.40;;;4.30;;
57303;SDS011;43150;50.986;18.208;2023-01-13T01:14:39;11.10;;;4.70;;
57303;SDS011;43150;50.986;18.208;2023-01-13T01:17:05;5.90;;;2.50;;
57303;SDS011;43150;50.986;18.208;2023-01-13T01:19:30;7.50;;;3.80;;
57303;SDS011;43150;50.986;18.208;2023-01-13T01:21:56;6.30;;;2.80;;
57303;SDS011;43150;50.986;18.208;2023-01-13T01:24:26;8.00;;;2.90;;
57303;SDS011;43150;50.986;18.208;2023-01-13T01:26:52;7.30;;;3.10;;
57303;SDS011;43150;50.986;18.208;2023-01-13T01:29:17;8.80;;;2.90;;
57303;SDS011;43150;50.986;18.208;2023-01-13T01:31:43;6.40;;;3.10;;
57303;SDS011;43150;50.986;18.208;2023-01-13T01:34:09;7.20;;;2.80;;
57303;SDS011;43150;50.986;18.208;2023-01-13T01:36:34;8.00;;;3.20;;
57303;SDS011;43150;50.986;18.208;2023-01-13T01:39:01;7.50;;;3.30;;
57303;SDS011;43150;50.986;18.208;2023-01-13T01:41:30;7.30;;;3.30;;
57303;SDS011;43150;50.986;18.208;2023-01-13T01:46:32;8.20;;;3.40;;
57303;SDS011;43150;50.986;18.208;2023-01-13T01:49:00;8.80;;;3.70;;
57303;SDS011;43150;50.986;18.208;2023-01-13T01:51:28;6.70;;;2.20;;
57303;SDS011;43150;50.986;18.208;2023-01-13T01:53:55;9.10;;;3.50;;
57303;SDS011;43150;50.986;18.208;2023-01-13T01:56:21;8.90;;;3.30;;
57303;SDS011;43150;50.986;18.208;2023-01-13T01:58:47;12.90;;;6.50;;
57303;SDS011;43150;50.986;18.208;2023-01-13T02:01:15;16.40;;;5.50;;
57303;SDS011;43150;50.986;18.208;2023-01-13T02:03:42;22.40;;;7.10;;
57303;SDS011;43150;50.986;18.208;2023-01-13T02:06:09;18.10;;;6.90;;
57303;SDS011;43150;50.986;18.208;2023-01-13T02:08:36;19.70;;;6.30;;
57303;SDS011;43150;50.986;18.208;2023-01-13T02:11:05;11.00;;;4.70;;
57303;SDS011;43150;50.986;18.208;2023-01-13T02:13:50;10.50;;;4.00;;
57303;SDS011;43150;50.986;18.208;2023-01-13T02:16:16;10.50;;;4.10;;
57303;SDS011;43150;50.986;18.208;2023-01-13T02:21:55;8.80;;;3.10;;
57303;SDS011;43150;50.986;18.208;2023-01-13T02:29:51;9.70;;;3.80;;
57303;SDS011;43150;50.986;18.208;2023-01-13T02:37:41;6.70;;;3.30;;
57303;SDS011;43150;50.986;18.208;2023-01-13T02:40:11;8.20;;;3.00;;
57303;SDS011;43150;50.986;18.208;2023-01-13T02:42:39;8.90;;;2.80;;
57303;SDS011;43150;50.986;18.208;2023-01-13T02:45:33;7.70;;;3.10;;
57303;SDS011;43150;50.986;18.208;2023-01-13T02:48:02;6.90;;;2.90;;
57303;SDS011;43150;50.986;18.208;2023-01-13T02:50:34;5.80;;;2.80;;
57303;SDS011;43150;50.986;18.208;2023-01-13T02:53:02;6.40;;;2.70;;
57303;SDS011;43150;50.986;18.208;2023-01-13T02:55:31;6.10;;;2.80;;
57303;SDS011;43150;50.986;18.208;2023-01-13T02:58:25;6.20;;;2.80;;
57303;SDS011;43150;50.986;18.208;2023-01-13T03:00:51;8.50;;;3.60;;
57303;SDS011;43150;50.986;18.208;2023-01-13T03:03:17;7.20;;;2.30;;
57303;SDS011;43150;50.986;18.208;2023-01-13T03:05:43;4.90;;;2.40;;
57303;SDS011;43150;50.986;18.208;2023-01-13T03:18:49;6.80;;;2.70;;
57303;SDS011;43150;50.986;18.208;2023-01-13T03:23:59;9.30;;;2.60;;
57303;SDS011;43150;50.986;18.208;2023-01-13T03:28:57;5.40;;;2.60;;
57303;SDS011;43150;50.986;18.208;2023-01-13T03:31:28;7.20;;;3.00;;
57303;SDS011;43150;50.986;18.208;2023-01-13T03:33:56;6.70;;;2.40;;
57303;SDS011;43150;50.986;18.208;2023-01-13T03:36:24;7.10;;;3.00;;
57303;SDS011;43150;50.986;18.208;2023-01-13T03:38:51;5.00;;;2.30;;
57303;SDS011;43150;50.986;18.208;2023-01-13T03:41:21;7.90;;;2.30;;
57303;SDS011;43150;50.986;18.208;2023-01-13T03:43:53;6.70;;;2.60;;
57303;SDS011;43150;50.986;18.208;2023-01-13T03:46:45;6.80;;;2.30;;
57303;SDS011;43150;50.986;18.208;2023-01-13T03:49:14;5.70;;;2.20;;
57303;SDS011;43150;50.986;18.208;2023-01-13T03:51:41;7.20;;;2.30;;
57303;SDS011;43150;50.986;18.208;2023-01-13T03:54:09;6.40;;;2.50;;
57303;SDS011;43150;50.986;18.208;2023-01-13T03:57:10;4.60;;;2.10;;
57303;SDS011;43150;50.986;18.208;2023-01-13T03:59:34;5.50;;;2.50;;
57303;SDS011;43150;50.986;18.208;2023-01-13T04:02:11;7.70;;;2.50;;
57303;SDS011;43150;50.986;18.208;2023-01-13T04:09:32;7.40;;;2.40;;
57303;SDS011;43150;50.986;18.208;2023-01-13T04:12:09;6.20;;;2.30;;
57303;SDS011;43150;50.986;18.208;2023-01-13T04:14:35;5.70;;;2.60;;
57303;SDS011;43150;50.986;18.208;2023-01-13T04:17:02;6.00;;;2.60;;
57303;SDS011;43150;50.986;18.208;2023-01-13T04:19:27;7.00;;;2.60;;
57303;SDS011;43150;50.986;18.208;2023-01-13T04:21:53;6.70;;;2.30;;
57303;SDS011;43150;50.986;18.208;2023-01-13T04:24:18;5.70;;;2.20;;
57303;SDS011;43150;50.986;18.208;2023-01-13T04:26:44;5.60;;;1.90;;
57303;SDS011;43150;50.986;18.208;2023-01-13T04:29:10;5.10;;;2.20;;
57303;SDS011;43150;50.986;18.208;2023-01-13T04:31:38;6.10;;;2.70;;
57303;SDS011;43150;50.986;18.208;2023-01-13T04:34:06;4.00;;;2.10;;
57303;SDS011;43150;50.986;18.208;2023-01-13T04:36:35;5.10;;;2.00;;
57303;SDS011;43150;50.986;18.208;2023-01-13T04:39:01;4.40;;;1.90;;
57303;SDS011;43150;50.986;18.208;2023-01-13T04:41:27;3.50;;;2.10;;
57303;SDS011;43150;50.986;18.208;2023-01-13T04:43:52;6.60;;;2.30;;
57303;SDS011;43150;50.986;18.208;2023-01-13T04:46:18;5.50;;;2.10;;
57303;SDS011;43150;50.986;18.208;2023-01-13T04:48:43;4.00;;;2.30;;
57303;SDS011;43150;50.986;18.208;2023-01-13T04:51:09;7.20;;;2.10;;
57303;SDS011;43150;50.986;18.208;2023-01-13T04:53:35;4.50;;;2.20;;
57303;SDS011;43150;50.986;18.208;2023-01-13T04:56:01;5.00;;;2.40;;
57303;SDS011;43150;50.986;18.208;2023-01-13T04:58:26;4.70;;;2.50;;
57303;SDS011;43150;50.986;18.208;2023-01-13T05:00:52;8.70;;;3.10;;
57303;SDS011;43150;50.986;18.208;2023-01-13T05:03:17;13.10;;;5.70;;
57303;SDS011;43150;50.986;18.208;2023-01-13T05:05:43;13.50;;;6.10;;
57303;SDS011;43150;50.986;18.208;2023-01-13T05:08:08;12.20;;;8.30;;
57303;SDS011;43150;50.986;18.208;2023-01-13T05:10:35;11.60;;;6.60;;
57303;SDS011;43150;50.986;18.208;2023-01-13T05:13:01;12.70;;;6.00;;
57303;SDS011;43150;50.986;18.208;2023-01-13T05:15:46;7.70;;;4.90;;
57303;SDS011;43150;50.986;18.208;2023-01-13T05:18:33;6.00;;;3.50;;
57303;SDS011;43150;50.986;18.208;2023-01-13T05:20:58;5.90;;;3.40;;
57303;SDS011;43150;50.986;18.208;2023-01-13T05:23:24;6.00;;;3.30;;
57303;SDS011;43150;50.986;18.208;2023-01-13T05:26:27;7.80;;;4.00;;
57303;SDS011;43150;50.986;18.208;2023-01-13T05:28:53;7.50;;;4.10;;
57303;SDS011;43150;50.986;18.208;2023-01-13T05:31:22;10.60;;;3.30;;
57303;SDS011;43150;50.986;18.208;2023-01-13T05:33:48;19.00;;;5.90;;
57303;SDS011;43150;50.986;18.208;2023-01-13T05:36:14;43.90;;;13.70;;
57303;SDS011;43150;50.986;18.208;2023-01-13T05:38:39;59.10;;;15.70;;
57303;SDS011;43150;50.986;18.208;2023-01-13T05:41:10;53.20;;;16.10;;
57303;SDS011;43150;50.986;18.208;2023-01-13T05:43:56;33.90;;;11.10;;
57303;SDS011;43150;50.986;18.208;2023-01-13T05:46:21;21.00;;;8.20;;
57303;SDS011;43150;50.986;18.208;2023-01-13T05:48:48;13.10;;;6.00;;
57303;SDS011;43150;50.986;18.208;2023-01-13T05:51:13;9.70;;;4.90;;
57303;SDS011;43150;50.986;18.208;2023-01-13T05:53:38;9.40;;;3.70;;
57303;SDS011;43150;50.986;18.208;2023-01-13T05:56:08;4.70;;;2.40;;
57303;SDS011;43150;50.986;18.208;2023-01-13T05:58:34;5.30;;;2.00;;
57303;SDS011;43150;50.986;18.208;2023-01-13T06:01:02;3.90;;;2.10;;
57303;SDS011;43150;50.986;18.208;2023-01-13T06:03:28;6.30;;;2.70;;
57303;SDS011;43150;50.986;18.208;2023-01-13T06:05:53;17.60;;;6.10;;
57303;SDS011;43150;50.986;18.208;2023-01-13T06:08:23;24.80;;;8.80;;
57303;SDS011;43150;50.986;18.208;2023-01-13T06:10:56;27.70;;;9.40;;
57303;SDS011;43150;50.986;18.208;2023-01-13T06:13:22;27.80;;;11.10;;
57303;SDS011;43150;50.986;18.208;2023-01-13T06:15:49;31.10;;;10.80;;
57303;SDS011;43150;50.986;18.208;2023-01-13T06:18:14;22.40;;;9.60;;
57303;SDS011;43150;50.986;18.208;2023-01-13T06:20:45;16.90;;;7.40;;
57303;SDS011;43150;50.986;18.208;2023-01-13T06:23:11;10.00;;;4.30;;
57303;SDS011;43150;50.986;18.208;2023-01-13T06:28:02;8.70;;;3.40;;
57303;SDS011;43150;50.986;18.208;2023-01-13T06:30:29;8.70;;;4.30;;
57303;SDS011;43150;50.986;18.208;2023-01-13T06:33:03;14.90;;;7.00;;
57303;SDS011;43150;50.986;18.208;2023-01-13T06:35:32;18.80;;;6.30;;
57303;SDS011;43150;50.986;18.208;2023-01-13T06:37:59;24.20;;;11.50;;
57303;SDS011;43150;50.986;18.208;2023-01-13T06:40:25;31.60;;;12.40;;
57303;SDS011;43150;50.986;18.208;2023-01-13T06:42:51;26.30;;;11.10;;
57303;SDS011;43150;50.986;18.208;2023-01-13T06:45:37;22.10;;;9.80;;
57303;SDS011;43150;50.986;18.208;2023-01-13T06:48:03;19.50;;;8.90;;
57303;SDS011;43150;50.986;18.208;2023-01-13T06:50:28;18.60;;;10.20;;
57303;SDS011;43150;50.986;18.208;2023-01-13T06:52:55;18.40;;;11.80;;
57303;SDS011;43150;50.986;18.208;2023-01-13T06:55:20;10.40;;;5.90;;
57303;SDS011;43150;50.986;18.208;2023-01-13T06:57:53;11.90;;;6.40;;
57303;SDS011;43150;50.986;18.208;2023-01-13T07:00:19;8.40;;;3.10;;
57303;SDS011;43150;50.986;18.208;2023-01-13T07:02:45;9.50;;;3.40;;
57303;SDS011;43150;50.986;18.208;2023-01-13T07:05:11;6.40;;;3.00;;
57303;SDS011;43150;50.986;18.208;2023-01-13T07:07:36;8.20;;;3.60;;
57303;SDS011;43150;50.986;18.208;2023-01-13T07:10:02;8.40;;;4.00;;
57303;SDS011;43150;50.986;18.208;2023-01-13T07:12:28;7.60;;;4.30;;
57303;SDS011;43150;50.986;18.208;2023-01-13T07:14:53;13.60;;;6.00;;
57303;SDS011;43150;50.986;18.208;2023-01-13T07:17:38;28.00;;;10.30;;
57303;SDS011;43150;50.986;18.208;2023-01-13T07:20:04;41.30;;;15.80;;
57303;SDS011;43150;50.986;18.208;2023-01-13T07:22:30;34.60;;;11.90;;
57303;SDS011;43150;50.986;18.208;2023-01-13T07:24:55;24.10;;;10.00;;
57303;SDS011;43150;50.986;18.208;2023-01-13T07:27:22;17.10;;;7.00;;
57303;SDS011;43150;50.986;18.208;2023-01-13T07:29:50;13.70;;;5.90;;
57303;SDS011;43150;50.986;18.208;2023-01-13T07:32:15;9.50;;;3.90;;
57303;SDS011;43150;50.986;18.208;2023-01-13T07:34:41;5.20;;;2.80;;
57303;SDS011;43150;50.986;18.208;2023-01-13T07:37:07;5.60;;;2.40;;
57303;SDS011;43150;50.986;18.208;2023-01-13T07:39:32;5.10;;;2.70;;
57303;SDS011;43150;50.986;18.208;2023-01-13T07:41:57;5.70;;;2.60;;
57303;SDS011;43150;50.986;18.208;2023-01-13T07:44:42;5.60;;;2.50;;
57303;SDS011;43150;50.986;18.208;2023-01-13T07:47:07;5.10;;;2.50;;
57303;SDS011;43150;50.986;18.208;2023-01-13T07:49:35;4.60;;;2.50;;
57303;SDS011;43150;50.986;18.208;2023-01-13T07:52:01;4.90;;;2.20;;
57303;SDS011;43150;50.986;18.208;2023-01-13T07:54:26;9.40;;;4.70;;
57303;SDS011;43150;50.986;18.208;2023-01-13T07:56:54;8.40;;;2.70;;
57303;SDS011;43150;50.986;18.208;2023-01-13T07:59:19;8.60;;;4.10;;
57303;SDS011;43150;50.986;18.208;2023-01-13T08:01:45;9.60;;;4.80;;
57303;SDS011;43150;50.986;18.208;2023-01-13T08:04:11;9.00;;;4.90;;
57303;SDS011;43150;50.986;18.208;2023-01-13T08:06:38;7.90;;;4.20;;
57303;SDS011;43150;50.986;18.208;2023-01-13T08:09:08;18.60;;;11.40;;
57303;SDS011;43150;50.986;18.208;2023-01-13T08:11:33;10.20;;;6.30;;
57303;SDS011;43150;50.986;18.208;2023-01-13T08:14:07;5.80;;;3.80;;
57303;SDS011;43150;50.986;18.208;2023-01-13T08:16:32;5.60;;;3.40;;
57303;SDS011;43150;50.986;18.208;2023-01-13T08:18:58;5.40;;;3.60;;
57303;SDS011;43150;50.986;18.208;2023-01-13T08:21:28;5.90;;;3.20;;
57303;SDS011;43150;50.986;18.208;2023-01-13T08:23:54;5.60;;;2.90;;
57303;SDS011;43150;50.986;18.208;2023-01-13T08:26:23;7.80;;;3.60;;
57303;SDS011;43150;50.986;18.208;2023-01-13T08:28:49;7.40;;;3.10;;
57303;SDS011;43150;50.986;18.208;2023-01-13T08:31:15;7.80;;;3.60;;
57303;SDS011;43150;50.986;18.208;2023-01-13T08:33:40;7.30;;;3.90;;
57303;SDS011;43150;50.986;18.208;2023-01-13T08:36:07;8.30;;;4.10;;
57303;SDS011;43150;50.986;18.208;2023-01-13T08:38:33;11.00;;;5.10;;
57303;SDS011;43150;50.986;18.208;2023-01-13T08:40:59;8.50;;;4.50;;
57303;SDS011;43150;50.986;18.208;2023-01-13T08:43:25;12.40;;;7.50;;
57303;SDS011;43150;50.986;18.208;2023-01-13T08:45:57;7.10;;;4.20;;
57303;SDS011;43150;50.986;18.208;2023-01-13T08:48:23;8.80;;;4.70;;
57303;SDS011;43150;50.986;18.208;2023-01-13T08:50:49;9.00;;;4.60;;
57303;SDS011;43150;50.986;18.208;2023-01-13T08:53:15;12.10;;;7.80;;
57303;SDS011;43150;50.986;18.208;2023-01-13T08:55:41;11.00;;;6.70;;
57303;SDS011;43150;50.986;18.208;2023-01-13T08:58:06;13.40;;;7.90;;
57303;SDS011;43150;50.986;18.208;2023-01-13T09:00:36;10.70;;;6.60;;
57303;SDS011;43150;50.986;18.208;2023-01-13T09:03:02;11.70;;;7.10;;
57303;SDS011;43150;50.986;18.208;2023-01-13T09:05:28;10.60;;;5.40;;
57303;SDS011;43150;50.986;18.208;2023-01-13T09:07:53;11.00;;;5.90;;
57303;SDS011;43150;50.986;18.208;2023-01-13T09:10:19;9.60;;;5.20;;
57303;SDS011;43150;50.986;18.208;2023-01-13T09:12:44;11.60;;;7.40;;
57303;SDS011;43150;50.986;18.208;2023-01-13T09:15:28;7.40;;;3.60;;
57303;SDS011;43150;50.986;18.208;2023-01-13T09:17:54;7.80;;;4.60;;
57303;SDS011;43150;50.986;18.208;2023-01-13T09:20:19;7.00;;;3.80;;
57303;SDS011;43150;50.986;18.208;2023-01-13T09:22:47;6.40;;;3.80;;
57303;SDS011;43150;50.986;18.208;2023-01-13T09:25:13;11.20;;;6.20;;
57303;SDS011;43150;50.986;18.208;2023-01-13T09:27:41;8.00;;;4.80;;
57303;SDS011;43150;50.986;18.208;2023-01-13T09:30:07;8.50;;;5.00;;
57303;SDS011;43150;50.986;18.208;2023-01-13T09:32:32;9.30;;;6.00;;
57303;SDS011;43150;50.986;18.208;2023-01-13T09:34:58;7.50;;;5.00;;
57303;SDS011;43150;50.986;18.208;2023-01-13T09:37:30;4.60;;;3.00;;
57303;SDS011;43150;50.986;18.208;2023-01-13T09:39:58;6.10;;;3.40;;
57303;SDS011;43150;50.986;18.208;2023-01-13T09:42:30;7.80;;;3.40;;
57303;SDS011;43150;50.986;18.208;2023-01-13T09:45:20;3.90;;;2.70;;
57303;SDS011;43150;50.986;18.208;2023-01-13T09:52:44;4.00;;;2.70;;
57303;SDS011;43150;50.986;18.208;2023-01-13T09:57:38;5.50;;;2.80;;
57303;SDS011;43150;50.986;18.208;2023-01-13T10:00:11;5.20;;;3.70;;
57303;SDS011;43150;50.986;18.208;2023-01-13T10:02:56;5.70;;;4.00;;
57303;SDS011;43150;50.986;18.208;2023-01-13T10:08:16;5.00;;;2.80;;
57303;SDS011;43150;50.986;18.208;2023-01-13T10:10:45;7.80;;;4.10;;
57303;SDS011;43150;50.986;18.208;2023-01-13T10:15:44;5.90;;;3.60;;
57303;SDS011;43150;50.986;18.208;2023-01-13T10:18:27;7.40;;;4.80;;
57303;SDS011;43150;50.986;18.208;2023-01-13T10:23:32;6.70;;;3.40;;
57303;SDS011;43150;50.986;18.208;2023-01-13T10:26:10;5.70;;;3.00;;
57303;SDS011;43150;50.986;18.208;2023-01-13T10:28:53;5.90;;;3.00;;
57303;SDS011;43150;50.986;18.208;2023-01-13T10:31:23;8.20;;;3.30;;
57303;SDS011;43150;50.986;18.208;2023-01-13T10:33:57;4.60;;;2.70;;
57303;SDS011;43150;50.986;18.208;2023-01-13T10:36:22;4.90;;;1.70;;
57303;SDS011;43150;50.986;18.208;2023-01-13T10:38:48;4.50;;;2.10;;
57303;SDS011;43150;50.986;18.208;2023-01-13T10:43:44;3.50;;;2.10;;
57303;SDS011;43150;50.986;18.208;2023-01-13T10:46:11;4.30;;;1.70;;
57303;SDS011;43150;50.986;18.208;2023-01-13T10:48:41;4.80;;;1.80;;
57303;SDS011;43150;50.986;18.208;2023-01-13T10:53:43;5.60;;;1.80;;
57303;SDS011;43150;50.986;18.208;2023-01-13T10:56:13;6.20;;;3.00;;
57303;SDS011;43150;50.986;18.208;2023-01-13T10:58:40;5.50;;;3.30;;
57303;SDS011;43150;50.986;18.208;2023-01-13T11:01:06;4.70;;;2.60;;
57303;SDS011;43150;50.986;18.208;2023-01-13T11:03:37;4.70;;;2.50;;
57303;SDS011;43150;50.986;18.208;2023-01-13T11:06:06;4.40;;;2.20;;
57303;SDS011;43150;50.986;18.208;2023-01-13T11:08:45;4.60;;;2.10;;
57303;SDS011;43150;50.986;18.208;2023-01-13T11:13:54;3.10;;;2.00;;
57303;SDS011;43150;50.986;18.208;2023-01-13T11:16:39;3.80;;;2.50;;
57303;SDS011;43150;50.986;18.208;2023-01-13T11:19:08;3.70;;;2.00;;
57303;SDS011;43150;50.986;18.208;2023-01-13T11:24:14;5.60;;;2.00;;
57303;SDS011;43150;50.986;18.208;2023-01-13T11:26:45;4.80;;;2.80;;
57303;SDS011;43150;50.986;18.208;2023-01-13T11:32:19;4.40;;;2.70;;
57303;SDS011;43150;50.986;18.208;2023-01-13T11:34:46;6.80;;;3.70;;
57303;SDS011;43150;50.986;18.208;2023-01-13T11:37:16;7.10;;;4.40;;
57303;SDS011;43150;50.986;18.208;2023-01-13T11:42:22;6.20;;;2.60;;
57303;SDS011;43150;50.986;18.208;2023-01-13T11:47:20;3.70;;;2.20;;
57303;SDS011;43150;50.986;18.208;2023-01-13T11:49:48;3.50;;;2.10;;
57303;SDS011;43150;50.986;18.208;2023-01-13T11:52:16;3.70;;;1.60;;
57303;SDS011;43150;50.986;18.208;2023-01-13T11:57:42;5.20;;;3.10;;
57303;SDS011;43150;50.986;18.208;2023-01-13T12:00:16;3.20;;;2.10;;
57303;SDS011;43150;50.986;18.208;2023-01-13T12:05:41;9.40;;;4.70;;
57303;SDS011;43150;50.986;18.208;2023-01-13T12:13:10;7.00;;;2.80;;
57303;SDS011;43150;50.986;18.208;2023-01-13T12:15:52;4.60;;;2.40;;
57303;SDS011;43150;50.986;18.208;2023-01-13T12:23:30;2.90;;;1.90;;
57303;SDS011;43150;50.986;18.208;2023-01-13T12:26:00;5.50;;;2.50;;
57303;SDS011;43150;50.986;18.208;2023-01-13T12:31:16;7.30;;;3.70;;
57303;SDS011;43150;50.986;18.208;2023-01-13T12:36:26;7.30;;;3.90;;
57303;SDS011;43150;50.986;18.208;2023-01-13T12:39:02;9.10;;;5.00;;
57303;SDS011;43150;50.986;18.208;2023-01-13T12:41:52;7.50;;;3.80;;
57303;SDS011;43150;50.986;18.208;2023-01-13T12:47:33;5.40;;;3.00;;
57303;SDS011;43150;50.986;18.208;2023-01-13T12:52:43;8.00;;;4.80;;
57303;SDS011;43150;50.986;18.208;2023-01-13T12:55:11;8.60;;;4.80;;
57303;SDS011;43150;50.986;18.208;2023-01-13T12:57:37;8.10;;;5.50;;
57303;SDS011;43150;50.986;18.208;2023-01-13T13:02:31;9.70;;;6.40;;
57303;SDS011;43150;50.986;18.208;2023-01-13T13:04:58;5.70;;;3.90;;
57303;SDS011;43150;50.986;18.208;2023-01-13T13:09:55;5.90;;;4.30;;
57303;SDS011;43150;50.986;18.208;2023-01-13T13:15:19;9.10;;;5.80;;
57303;SDS011;43150;50.986;18.208;2023-01-13T13:17:59;3.90;;;2.60;;
57303;SDS011;43150;50.986;18.208;2023-01-13T13:28:26;15.60;;;12.00;;
57303;SDS011;43150;50.986;18.208;2023-01-13T13:31:04;16.10;;;9.50;;
57303;SDS011;43150;50.986;18.208;2023-01-13T13:33:44;25.60;;;12.30;;
57303;SDS011;43150;50.986;18.208;2023-01-13T13:41:33;9.80;;;5.20;;
57303;SDS011;43150;50.986;18.208;2023-01-13T13:44:24;7.80;;;4.60;;
57303;SDS011;43150;50.986;18.208;2023-01-13T13:47:09;6.00;;;3.60;;
57303;SDS011;43150;50.986;18.208;2023-01-13T13:49:39;7.70;;;5.60;;
57303;SDS011;43150;50.986;18.208;2023-01-13T13:54:41;6.00;;;3.60;;
57303;SDS011;43150;50.986;18.208;2023-01-13T13:57:55;7.90;;;4.90;;
57303;SDS011;43150;50.986;18.208;2023-01-13T14:00:18;6.40;;;4.80;;
57303;SDS011;43150;50.986;18.208;2023-01-13T14:02:45;8.70;;;4.70;;
57303;SDS011;43150;50.986;18.208;2023-01-13T14:05:23;12.80;;;8.90;;
57303;SDS011;43150;50.986;18.208;2023-01-13T14:07:50;11.60;;;7.50;;
57303;SDS011;43150;50.986;18.208;2023-01-13T14:10:21;13.80;;;7.90;;
57303;SDS011;43150;50.986;18.208;2023-01-13T14:12:49;9.00;;;4.40;;
57303;SDS011;43150;50.986;18.208;2023-01-13T14:15:24;8.70;;;6.20;;
57303;SDS011;43150;50.986;18.208;2023-01-13T14:17:50;18.10;;;12.30;;
57303;SDS011;43150;50.986;18.208;2023-01-13T14:20:16;30.10;;;13.70;;
57303;SDS011;43150;50.986;18.208;2023-01-13T14:22:46;13.30;;;10.00;;
57303;SDS011;43150;50.986;18.208;2023-01-13T14:28:24;11.20;;;6.20;;
57303;SDS011;43150;50.986;18.208;2023-01-13T14:30:51;9.80;;;5.30;;
57303;SDS011;43150;50.986;18.208;2023-01-13T14:33:20;9.20;;;6.60;;
57303;SDS011;43150;50.986;18.208;2023-01-13T14:38:31;16.00;;;7.60;;
57303;SDS011;43150;50.986;18.208;2023-01-13T14:40:56;11.00;;;6.30;;
57303;SDS011;43150;50.986;18.208;2023-01-13T14:43:23;18.10;;;8.80;;
57303;SDS011;43150;50.986;18.208;2023-01-13T14:45:54;23.40;;;15.00;;
57303;SDS011;43150;50.986;18.208;2023-01-13T14:48:21;21.50;;;12.40;;
57303;SDS011;43150;50.986;18.208;2023-01-13T14:50:50;15.00;;;11.50;;
57303;SDS011;43150;50.986;18.208;2023-01-13T14:56:31;26.80;;;18.00;;
57303;SDS011;43150;50.986;18.208;2023-01-13T14:58:45;19.50;;;15.20;;
57303;SDS011;43150;50.986;18.208;2023-01-13T15:01:32;23.20;;;9.30;;
57303;SDS011;43150;50.986;18.208;2023-01-13T15:06:45;18.60;;;12.80;;
57303;SDS011;43150;50.986;18.208;2023-01-13T15:09:11;20.20;;;9.30;;
57303;SDS011;43150;50.986;18.208;2023-01-13T15:11:37;24.10;;;13.50;;
57303;SDS011;43150;50.986;18.208;2023-01-13T15:14:08;13.60;;;9.70;;
57303;SDS011;43150;50.986;18.208;2023-01-13T15:16:34;22.40;;;10.70;;
57303;SDS011;43150;50.986;18.208;2023-01-13T15:19:05;15.70;;;8.80;;
57303;SDS011;43150;50.986;18.208;2023-01-13T15:21:30;24.50;;;18.20;;
57303;SDS011;43150;50.986;18.208;2023-01-13T15:23:56;35.20;;;16.60;;
57303;SDS011;43150;50.986;18.208;2023-01-13T15:26:28;43.00;;;18.10;;
57303;SDS011;43150;50.986;18.208;2023-01-13T15:28:54;39.40;;;21.80;;
57303;SDS011;43150;50.986;18.208;2023-01-13T15:31:20;63.70;;;37.60;;
57303;SDS011;43150;50.986;18.208;2023-01-13T15:33:46;58.30;;;22.30;;
57303;SDS011;43150;50.986;18.208;2023-01-13T15:36:22;77.60;;;40.00;;
57303;SDS011;43150;50.986;18.208;2023-01-13T15:38:49;80.00;;;29.00;;
57303;SDS011;43150;50.986;18.208;2023-01-13T15:41:14;56.60;;;23.00;;
57303;SDS011;43150;50.986;18.208;2023-01-13T15:43:40;38.20;;;24.90;;
57303;SDS011;43150;50.986;18.208;2023-01-13T15:46:24;29.20;;;18.60;;
57303;SDS011;43150;50.986;18.208;2023-01-13T15:49:06;19.90;;;10.50;;
57303;SDS011;43150;50.986;18.208;2023-01-13T15:51:37;21.30;;;15.40;;
57303;SDS011;43150;50.986;18.208;2023-01-13T15:54:04;18.80;;;10.40;;
57303;SDS011;43150;50.986;18.208;2023-01-13T15:56:30;26.70;;;13.50;;
57303;SDS011;43150;50.986;18.208;2023-01-13T15:58:58;28.80;;;14.80;;
57303;SDS011;43150;50.986;18.208;2023-01-13T16:01:25;26.50;;;18.70;;
57303;SDS011;43150;50.986;18.208;2023-01-13T16:03:51;20.70;;;11.60;;
57303;SDS011;43150;50.986;18.208;2023-01-13T16:06:20;18.90;;;11.10;;
57303;SDS011;43150;50.986;18.208;2023-01-13T16:08:47;23.90;;;14.20;;
57303;SDS011;43150;50.986;18.208;2023-01-13T16:11:13;17.10;;;8.90;;
57303;SDS011;43150;50.986;18.208;2023-01-13T16:13:39;23.00;;;11.60;;
57303;SDS011;43150;50.986;18.208;2023-01-13T16:16:37;23.00;;;13.10;;
57303;SDS011;43150;50.986;18.208;2023-01-13T16:18:56;24.50;;;13.50;;
57303;SDS011;43150;50.986;18.208;2023-01-13T16:21:21;24.70;;;13.90;;
57303;SDS011;43150;50.986;18.208;2023-01-13T16:23:47;21.00;;;10.80;;
57303;SDS011;43150;50.986;18.208;2023-01-13T16:26:18;16.90;;;9.10;;
57303;SDS011;43150;50.986;18.208;2023-01-13T16:28:44;18.30;;;8.80;;
57303;SDS011;43150;50.986;18.208;2023-01-13T16:31:16;12.60;;;6.80;;
57303;SDS011;43150;50.986;18.208;2023-01-13T16:33:42;14.40;;;8.40;;
57303;SDS011;43150;50.986;18.208;2023-01-13T16:36:12;15.70;;;9.60;;
57303;SDS011;43150;50.986;18.208;2023-01-13T16:38:38;22.80;;;11.60;;
57303;SDS011;43150;50.986;18.208;2023-01-13T16:41:03;22.20;;;12.00;;
57303;SDS011;43150;50.986;18.208;2023-01-13T16:43:29;20.80;;;11.40;;
57303;SDS011;43150;50.986;18.208;2023-01-13T16:45:55;18.70;;;11.10;;
57303;SDS011;43150;50.986;18.208;2023-01-13T16:48:20;17.70;;;9.20;;
57303;SDS011;43150;50.986;18.208;2023-01-13T16:50:47;22.40;;;12.40;;
57303;SDS011;43150;50.986;18.208;2023-01-13T16:53:13;17.00;;;9.90;;